sensor_id;sensor_type;location;lat;lon;timestamp;P1;durP1;ratioP1;P2;durP2;ratioP2
71769;SDS011;66386;52.122;5.420;2024-02-28T00:02:02;29.45;;;12.02;;
71769;SDS011;66386;52.122;5.420;2024-02-28T00:04:28;29.43;;;12.00;;
71769;SDS011;66386;52.122;5.420;2024-02-28T00:06:55;28.67;;;12.48;;
71769;SDS011;66386;52.122;5.420;2024-02-28T00:09:21;29.23;;;11.68;;
71769;SDS011;66386;52.122;5.420;2024-02-28T00:11:48;28.05;;;11.02;;
71769;SDS011;66386;52.122;5.420;2024-02-28T00:14:14;33.58;;;12.10;;
71769;SDS011;66386;52.122;5.420;2024-02-28T00:16:41;32.40;;;11.87;;
71769;SDS011;66386;52.122;5.420;2024-02-28T00:19:09;27.80;;;12.15;;
71769;SDS011;66386;52.122;5.420;2024-02-28T00:21:38;29.75;;;11.45;;
71769;SDS011;66386;52.122;5.420;2024-02-28T00:24:06;31.40;;;12.57;;
71769;SDS011;66386;52.122;5.420;2024-02-28T00:26:33;32.22;;;11.80;;
71769;SDS011;66386;52.122;5.420;2024-02-28T00:29:00;32.27;;;12.60;;
71769;SDS011;66386;52.122;5.420;2024-02-28T00:31:26;28.70;;;11.93;;
71769;SDS011;66386;52.122;5.420;2024-02-28T00:33:53;33.55;;;12.05;;
71769;SDS011;66386;52.122;5.420;2024-02-28T00:36:19;26.58;;;11.52;;
71769;SDS011;66386;52.122;5.420;2024-02-28T00:38:46;31.40;;;11.70;;
71769;SDS011;66386;52.122;5.420;2024-02-28T00:41:13;27.87;;;11.10;;
71769;SDS011;66386;52.122;5.420;2024-02-28T00:43:39;30.75;;;11.40;;
71769;SDS011;66386;52.122;5.420;2024-02-28T00:46:06;28.48;;;10.82;;
71769;SDS011;66386;52.122;5.420;2024-02-28T00:48:40;31.08;;;11.93;;
71769;SDS011;66386;52.122;5.420;2024-02-28T00:51:07;32.72;;;11.63;;
71769;SDS011;66386;52.122;5.420;2024-02-28T00:53:34;33.40;;;11.73;;
71769;SDS011;66386;52.122;5.420;2024-02-28T00:56:01;29.25;;;11.23;;
71769;SDS011;66386;52.122;5.420;2024-02-28T00:58:27;32.58;;;12.32;;
71769;SDS011;66386;52.122;5.420;2024-02-28T01:00:56;30.20;;;11.63;;
71769;SDS011;66386;52.122;5.420;2024-02-28T01:03:23;31.65;;;11.43;;
71769;SDS011;66386;52.122;5.420;2024-02-28T01:05:50;30.20;;;11.70;;
71769;SDS011;66386;52.122;5.420;2024-02-28T01:08:17;34.17;;;12.93;;
71769;SDS011;66386;52.122;5.420;2024-02-28T01:10:44;34.83;;;13.55;;
71769;SDS011;66386;52.122;5.420;2024-02-28T01:13:11;36.42;;;12.63;;
71769;SDS011;66386;52.122;5.420;2024-02-28T01:15:41;31.35;;;13.38;;
71769;SDS011;66386;52.122;5.420;2024-02-28T01:18:10;32.17;;;12.40;;
71769;SDS011;66386;52.122;5.420;2024-02-28T01:20:37;31.75;;;12.32;;
71769;SDS011;66386;52.122;5.420;2024-02-28T01:23:04;32.08;;;12.27;;
71769;SDS011;66386;52.122;5.420;2024-02-28T01:25:30;33.75;;;12.07;;
71769;SDS011;66386;52.122;5.420;2024-02-28T01:27:57;25.77;;;11.48;;
71769;SDS011;66386;52.122;5.420;2024-02-28T01:30:26;30.40;;;11.87;;
71769;SDS011;66386;52.122;5.420;2024-02-28T01:32:53;27.38;;;10.07;;
71769;SDS011;66386;52.122;5.420;2024-02-28T01:35:19;32.58;;;11.93;;
71769;SDS011;66386;52.122;5.420;2024-02-28T01:37:46;26.55;;;11.30;;
71769;SDS011;66386;52.122;5.420;2024-02-28T01:40:13;30.45;;;10.57;;
71769;SDS011;66386;52.122;5.420;2024-02-28T01:42:39;25.20;;;10.10;;
71769;SDS011;66386;52.122;5.420;2024-02-28T01:45:06;36.72;;;11.38;;
71769;SDS011;66386;52.122;5.420;2024-02-28T01:47:35;30.67;;;11.63;;
71769;SDS011;66386;52.122;5.420;2024-02-28T01:50:03;42.35;;;12.20;;
71769;SDS011;66386;52.122;5.420;2024-02-28T01:52:31;60.03;;;13.85;;
71769;SDS011;66386;52.122;5.420;2024-02-28T01:54:57;74.30;;;14.47;;
71769;SDS011;66386;52.122;5.420;2024-02-28T01:57:24;56.05;;;13.60;;
71769;SDS011;66386;52.122;5.420;2024-02-28T01:59:51;63.05;;;11.82;;
71769;SDS011;66386;52.122;5.420;2024-02-28T02:02:20;81.53;;;14.95;;
71769;SDS011;66386;52.122;5.420;2024-02-28T02:04:47;78.88;;;12.23;;
71769;SDS011;66386;52.122;5.420;2024-02-28T02:07:14;70.67;;;11.53;;
71769;SDS011;66386;52.122;5.420;2024-02-28T02:09:40;74.35;;;13.95;;
71769;SDS011;66386;52.122;5.420;2024-02-28T02:12:07;95.85;;;11.43;;
71769;SDS011;66386;52.122;5.420;2024-02-28T02:14:34;45.80;;;10.93;;
71769;SDS011;66386;52.122;5.420;2024-02-28T02:17:00;60.47;;;10.35;;
71769;SDS011;66386;52.122;5.420;2024-02-28T02:19:26;49.70;;;10.87;;
71769;SDS011;66386;52.122;5.420;2024-02-28T02:21:53;65.97;;;11.23;;
71769;SDS011;66386;52.122;5.420;2024-02-28T02:24:23;65.68;;;10.90;;
71769;SDS011;66386;52.122;5.420;2024-02-28T02:26:54;45.72;;;11.13;;
71769;SDS011;66386;52.122;5.420;2024-02-28T02:29:21;32.33;;;10.75;;
71769;SDS011;66386;52.122;5.420;2024-02-28T02:31:48;53.40;;;9.83;;
71769;SDS011;66386;52.122;5.420;2024-02-28T02:34:14;29.25;;;10.25;;
71769;SDS011;66386;52.122;5.420;2024-02-28T02:36:41;29.42;;;10.38;;
71769;SDS011;66386;52.122;5.420;2024-02-28T02:39:07;24.50;;;9.57;;
71769;SDS011;66386;52.122;5.420;2024-02-28T02:41:34;33.33;;;10.13;;
71769;SDS011;66386;52.122;5.420;2024-02-28T02:44:00;23.10;;;10.27;;
71769;SDS011;66386;52.122;5.420;2024-02-28T02:46:27;31.83;;;10.45;;
71769;SDS011;66386;52.122;5.420;2024-02-28T02:48:53;23.90;;;9.63;;
71769;SDS011;66386;52.122;5.420;2024-02-28T02:51:20;26.52;;;10.43;;
71769;SDS011;66386;52.122;5.420;2024-02-28T02:53:46;24.60;;;9.63;;
71769;SDS011;66386;52.122;5.420;2024-02-28T02:56:13;22.67;;;9.97;;
71769;SDS011;66386;52.122;5.420;2024-02-28T02:58:39;23.00;;;10.55;;
71769;SDS011;66386;52.122;5.420;2024-02-28T03:01:06;22.15;;;9.60;;
71769;SDS011;66386;52.122;5.420;2024-02-28T03:03:32;32.58;;;10.60;;
71769;SDS011;66386;52.122;5.420;2024-02-28T03:05:59;37.00;;;11.35;;
71769;SDS011;66386;52.122;5.420;2024-02-28T03:08:26;35.83;;;10.30;;
71769;SDS011;66386;52.122;5.420;2024-02-28T03:10:52;28.40;;;10.93;;
71769;SDS011;66386;52.122;5.420;2024-02-28T03:13:19;28.85;;;11.00;;
71769;SDS011;66386;52.122;5.420;2024-02-28T03:15:45;25.40;;;10.07;;
71769;SDS011;66386;52.122;5.420;2024-02-28T03:18:11;28.48;;;10.23;;
71769;SDS011;66386;52.122;5.420;2024-02-28T03:20:38;30.20;;;11.17;;
71769;SDS011;66386;52.122;5.420;2024-02-28T03:23:05;21.63;;;9.90;;
71769;SDS011;66386;52.122;5.420;2024-02-28T03:25:32;33.85;;;11.90;;
71769;SDS011;66386;52.122;5.420;2024-02-28T03:28:00;40.38;;;10.60;;
71769;SDS011;66386;52.122;5.420;2024-02-28T03:30:27;45.38;;;10.05;;
71769;SDS011;66386;52.122;5.420;2024-02-28T03:32:54;40.63;;;11.30;;
71769;SDS011;66386;52.122;5.420;2024-02-28T03:35:20;37.78;;;11.02;;
71769;SDS011;66386;52.122;5.420;2024-02-28T03:37:47;53.92;;;12.10;;
71769;SDS011;66386;52.122;5.420;2024-02-28T03:40:14;40.92;;;11.15;;
71769;SDS011;66386;52.122;5.420;2024-02-28T03:42:41;34.88;;;10.27;;
71769;SDS011;66386;52.122;5.420;2024-02-28T03:45:07;39.90;;;11.13;;
71769;SDS011;66386;52.122;5.420;2024-02-28T03:47:34;46.65;;;11.30;;
71769;SDS011;66386;52.122;5.420;2024-02-28T03:50:00;34.42;;;10.45;;
71769;SDS011;66386;52.122;5.420;2024-02-28T03:52:29;38.42;;;10.80;;
71769;SDS011;66386;52.122;5.420;2024-02-28T03:54:57;63.15;;;10.32;;
71769;SDS011;66386;52.122;5.420;2024-02-28T03:57:24;29.07;;;9.83;;
71769;SDS011;66386;52.122;5.420;2024-02-28T03:59:50;37.38;;;10.80;;
71769;SDS011;66386;52.122;5.420;2024-02-28T04:02:17;24.52;;;9.57;;
71769;SDS011;66386;52.122;5.420;2024-02-28T04:04:44;38.45;;;10.23;;
71769;SDS011;66386;52.122;5.420;2024-02-28T04:07:10;33.13;;;11.23;;
71769;SDS011;66386;52.122;5.420;2024-02-28T04:09:37;23.70;;;9.97;;
71769;SDS011;66386;52.122;5.420;2024-02-28T04:12:03;29.30;;;10.30;;
71769;SDS011;66386;52.122;5.420;2024-02-28T04:14:30;20.38;;;9.80;;
71769;SDS011;66386;52.122;5.420;2024-02-28T04:16:56;18.33;;;9.65;;
71769;SDS011;66386;52.122;5.420;2024-02-28T04:19:23;18.75;;;9.68;;
71769;SDS011;66386;52.122;5.420;2024-02-28T04:21:50;18.67;;;9.17;;
71769;SDS011;66386;52.122;5.420;2024-02-28T04:24:16;20.35;;;9.05;;
71769;SDS011;66386;52.122;5.420;2024-02-28T04:26:43;17.88;;;8.57;;
71769;SDS011;66386;52.122;5.420;2024-02-28T04:29:09;16.67;;;8.93;;
71769;SDS011;66386;52.122;5.420;2024-02-28T04:31:40;19.17;;;9.35;;
71769;SDS011;66386;52.122;5.420;2024-02-28T04:34:06;20.00;;;9.40;;
71769;SDS011;66386;52.122;5.420;2024-02-28T04:36:33;20.13;;;9.40;;
71769;SDS011;66386;52.122;5.420;2024-02-28T04:38:59;17.73;;;8.93;;
71769;SDS011;66386;52.122;5.420;2024-02-28T04:41:30;18.52;;;8.73;;
71769;SDS011;66386;52.122;5.420;2024-02-28T04:43:56;17.52;;;9.02;;
71769;SDS011;66386;52.122;5.420;2024-02-28T04:46:23;17.33;;;8.37;;
71769;SDS011;66386;52.122;5.420;2024-02-28T04:48:49;16.45;;;8.63;;
71769;SDS011;66386;52.122;5.420;2024-02-28T04:51:16;20.60;;;9.75;;
71769;SDS011;66386;52.122;5.420;2024-02-28T04:53:45;20.38;;;9.40;;
71769;SDS011;66386;52.122;5.420;2024-02-28T04:56:12;18.80;;;9.60;;
71769;SDS011;66386;52.122;5.420;2024-02-28T04:58:38;21.77;;;9.73;;
71769;SDS011;66386;52.122;5.420;2024-02-28T05:01:05;19.10;;;9.25;;
71769;SDS011;66386;52.122;5.420;2024-02-28T05:03:31;18.77;;;8.98;;
71769;SDS011;66386;52.122;5.420;2024-02-28T05:05:58;15.70;;;7.65;;
71769;SDS011;66386;52.122;5.420;2024-02-28T05:08:24;16.27;;;9.38;;
71769;SDS011;66386;52.122;5.420;2024-02-28T05:10:52;18.07;;;9.27;;
71769;SDS011;66386;52.122;5.420;2024-02-28T05:13:19;17.75;;;9.23;;
71769;SDS011;66386;52.122;5.420;2024-02-28T05:15:45;17.10;;;8.20;;
71769;SDS011;66386;52.122;5.420;2024-02-28T05:18:12;17.27;;;8.82;;
71769;SDS011;66386;52.122;5.420;2024-02-28T05:20:38;19.08;;;9.57;;
71769;SDS011;66386;52.122;5.420;2024-02-28T05:23:05;16.03;;;8.37;;
71769;SDS011;66386;52.122;5.420;2024-02-28T05:25:31;16.95;;;9.07;;
71769;SDS011;66386;52.122;5.420;2024-02-28T05:27:58;14.88;;;8.20;;
71769;SDS011;66386;52.122;5.420;2024-02-28T05:30:24;16.50;;;8.63;;
71769;SDS011;66386;52.122;5.420;2024-02-28T05:32:51;16.63;;;8.95;;
71769;SDS011;66386;52.122;5.420;2024-02-28T05:35:17;19.43;;;8.97;;
71769;SDS011;66386;52.122;5.420;2024-02-28T05:37:44;15.05;;;8.90;;
71769;SDS011;66386;52.122;5.420;2024-02-28T05:40:12;14.65;;;8.52;;
71769;SDS011;66386;52.122;5.420;2024-02-28T05:42:39;16.15;;;9.13;;
71769;SDS011;66386;52.122;5.420;2024-02-28T05:45:06;18.17;;;8.48;;
71769;SDS011;66386;52.122;5.420;2024-02-28T05:47:33;16.87;;;8.73;;
71769;SDS011;66386;52.122;5.420;2024-02-28T05:50:00;15.68;;;8.82;;
71769;SDS011;66386;52.122;5.420;2024-02-28T05:52:26;16.73;;;8.70;;
71769;SDS011;66386;52.122;5.420;2024-02-28T05:54:53;17.35;;;8.93;;
71769;SDS011;66386;52.122;5.420;2024-02-28T05:57:20;18.20;;;9.30;;
71769;SDS011;66386;52.122;5.420;2024-02-28T05:59:46;20.10;;;8.93;;
71769;SDS011;66386;52.122;5.420;2024-02-28T06:02:13;18.30;;;8.75;;
71769;SDS011;66386;52.122;5.420;2024-02-28T06:04:39;16.30;;;8.52;;
71769;SDS011;66386;52.122;5.420;2024-02-28T06:07:06;17.15;;;10.38;;
71769;SDS011;66386;52.122;5.420;2024-02-28T06:09:33;16.10;;;9.38;;
71769;SDS011;66386;52.122;5.420;2024-02-28T06:11:59;20.67;;;10.40;;
71769;SDS011;66386;52.122;5.420;2024-02-28T06:14:28;16.48;;;8.88;;
71769;SDS011;66386;52.122;5.420;2024-02-28T06:16:54;14.40;;;8.77;;
71769;SDS011;66386;52.122;5.420;2024-02-28T06:19:20;15.40;;;9.73;;
71769;SDS011;66386;52.122;5.420;2024-02-28T06:21:47;15.70;;;9.77;;
71769;SDS011;66386;52.122;5.420;2024-02-28T06:24:14;20.00;;;10.10;;
71769;SDS011;66386;52.122;5.420;2024-02-28T06:26:40;18.65;;;9.85;;
71769;SDS011;66386;52.122;5.420;2024-02-28T06:29:08;17.15;;;10.20;;
71769;SDS011;66386;52.122;5.420;2024-02-28T06:31:35;20.88;;;10.07;;
71769;SDS011;66386;52.122;5.420;2024-02-28T06:34:02;16.50;;;10.75;;
71769;SDS011;66386;52.122;5.420;2024-02-28T06:36:30;21.13;;;10.10;;
71769;SDS011;66386;52.122;5.420;2024-02-28T06:38:57;15.40;;;9.15;;
71769;SDS011;66386;52.122;5.420;2024-02-28T06:41:24;21.23;;;10.52;;
71769;SDS011;66386;52.122;5.420;2024-02-28T06:43:51;17.45;;;9.60;;
71769;SDS011;66386;52.122;5.420;2024-02-28T06:46:17;16.90;;;8.63;;
71769;SDS011;66386;52.122;5.420;2024-02-28T06:48:44;19.00;;;10.43;;
71769;SDS011;66386;52.122;5.420;2024-02-28T06:51:10;18.65;;;9.98;;
71769;SDS011;66386;52.122;5.420;2024-02-28T06:53:40;18.35;;;10.10;;
71769;SDS011;66386;52.122;5.420;2024-02-28T06:56:06;17.80;;;10.40;;
71769;SDS011;66386;52.122;5.420;2024-02-28T06:58:33;18.77;;;10.88;;
71769;SDS011;66386;52.122;5.420;2024-02-28T07:01:00;16.00;;;10.13;;
71769;SDS011;66386;52.122;5.420;2024-02-28T07:03:28;16.35;;;9.98;;
71769;SDS011;66386;52.122;5.420;2024-02-28T07:05:54;15.00;;;9.60;;
71769;SDS011;66386;52.122;5.420;2024-02-28T07:08:21;14.38;;;9.20;;
71769;SDS011;66386;52.122;5.420;2024-02-28T07:10:47;18.05;;;10.38;;
71769;SDS011;66386;52.122;5.420;2024-02-28T07:13:20;15.60;;;9.57;;
71769;SDS011;66386;52.122;5.420;2024-02-28T07:15:47;17.27;;;10.18;;
71769;SDS011;66386;52.122;5.420;2024-02-28T07:18:15;14.40;;;9.20;;
71769;SDS011;66386;52.122;5.420;2024-02-28T07:20:42;18.90;;;9.48;;
71769;SDS011;66386;52.122;5.420;2024-02-28T07:23:08;19.25;;;10.50;;
71769;SDS011;66386;52.122;5.420;2024-02-28T07:25:35;14.77;;;10.30;;
71769;SDS011;66386;52.122;5.420;2024-02-28T07:28:01;18.30;;;10.85;;
71769;SDS011;66386;52.122;5.420;2024-02-28T07:30:31;17.70;;;10.38;;
71769;SDS011;66386;52.122;5.420;2024-02-28T07:32:57;16.23;;;10.00;;
71769;SDS011;66386;52.122;5.420;2024-02-28T07:35:24;17.13;;;10.00;;
71769;SDS011;66386;52.122;5.420;2024-02-28T07:37:51;17.80;;;10.40;;
71769;SDS011;66386;52.122;5.420;2024-02-28T07:40:17;19.08;;;10.13;;
71769;SDS011;66386;52.122;5.420;2024-02-28T07:42:44;17.80;;;10.55;;
71769;SDS011;66386;52.122;5.420;2024-02-28T07:45:11;18.42;;;10.70;;
71769;SDS011;66386;52.122;5.420;2024-02-28T07:47:37;20.42;;;10.50;;
71769;SDS011;66386;52.122;5.420;2024-02-28T07:50:05;18.13;;;11.03;;
71769;SDS011;66386;52.122;5.420;2024-02-28T07:52:32;17.77;;;10.65;;
71769;SDS011;66386;52.122;5.420;2024-02-28T07:55:03;18.75;;;11.27;;
71769;SDS011;66386;52.122;5.420;2024-02-28T07:57:31;18.33;;;11.30;;
71769;SDS011;66386;52.122;5.420;2024-02-28T07:59:57;18.85;;;11.38;;
71769;SDS011;66386;52.122;5.420;2024-02-28T08:02:24;15.50;;;9.83;;
71769;SDS011;66386;52.122;5.420;2024-02-28T08:04:51;14.57;;;10.02;;
71769;SDS011;66386;52.122;5.420;2024-02-28T08:07:18;19.35;;;11.20;;
71769;SDS011;66386;52.122;5.420;2024-02-28T08:09:44;19.15;;;12.18;;
71769;SDS011;66386;52.122;5.420;2024-02-28T08:12:11;16.08;;;11.27;;
71769;SDS011;66386;52.122;5.420;2024-02-28T08:14:38;16.63;;;10.53;;
71769;SDS011;66386;52.122;5.420;2024-02-28T08:17:04;16.10;;;10.98;;
71769;SDS011;66386;52.122;5.420;2024-02-28T08:19:31;18.30;;;11.25;;
71769;SDS011;66386;52.122;5.420;2024-02-28T08:21:57;15.80;;;10.65;;
71769;SDS011;66386;52.122;5.420;2024-02-28T08:24:24;15.95;;;10.95;;
71769;SDS011;66386;52.122;5.420;2024-02-28T08:26:50;16.70;;;10.40;;
71769;SDS011;66386;52.122;5.420;2024-02-28T08:29:17;17.60;;;12.10;;
71769;SDS011;66386;52.122;5.420;2024-02-28T08:31:44;19.42;;;11.25;;
71769;SDS011;66386;52.122;5.420;2024-02-28T08:34:11;14.27;;;10.23;;
71769;SDS011;66386;52.122;5.420;2024-02-28T08:36:38;16.77;;;11.55;;
71769;SDS011;66386;52.122;5.420;2024-02-28T08:39:04;17.57;;;12.23;;
71769;SDS011;66386;52.122;5.420;2024-02-28T08:41:32;23.45;;;12.38;;
71769;SDS011;66386;52.122;5.420;2024-02-28T08:43:59;20.40;;;11.38;;
71769;SDS011;66386;52.122;5.420;2024-02-28T08:46:26;20.55;;;11.73;;
71769;SDS011;66386;52.122;5.420;2024-02-28T08:48:53;18.95;;;12.45;;
71769;SDS011;66386;52.122;5.420;2024-02-28T08:51:19;16.40;;;12.13;;
71769;SDS011;66386;52.122;5.420;2024-02-28T08:53:46;16.27;;;12.30;;
71769;SDS011;66386;52.122;5.420;2024-02-28T08:56:12;19.38;;;12.20;;
71769;SDS011;66386;52.122;5.420;2024-02-28T08:58:39;18.63;;;12.52;;
71769;SDS011;66386;52.122;5.420;2024-02-28T09:01:06;16.65;;;12.18;;
71769;SDS011;66386;52.122;5.420;2024-02-28T09:03:32;18.30;;;12.60;;
71769;SDS011;66386;52.122;5.420;2024-02-28T09:05:59;24.92;;;13.65;;
71769;SDS011;66386;52.122;5.420;2024-02-28T09:08:26;21.23;;;12.77;;
71769;SDS011;66386;52.122;5.420;2024-02-28T09:10:52;25.40;;;13.40;;
71769;SDS011;66386;52.122;5.420;2024-02-28T09:13:19;18.70;;;12.55;;
71769;SDS011;66386;52.122;5.420;2024-02-28T09:15:46;22.10;;;13.23;;
71769;SDS011;66386;52.122;5.420;2024-02-28T09:18:13;23.08;;;14.50;;
71769;SDS011;66386;52.122;5.420;2024-02-28T09:20:39;24.50;;;13.80;;
71769;SDS011;66386;52.122;5.420;2024-02-28T09:23:05;19.55;;;13.35;;
71769;SDS011;66386;52.122;5.420;2024-02-28T09:25:33;24.90;;;14.30;;
71769;SDS011;66386;52.122;5.420;2024-02-28T09:28:02;20.27;;;13.40;;
71769;SDS011;66386;52.122;5.420;2024-02-28T09:30:28;22.33;;;13.40;;
71769;SDS011;66386;52.122;5.420;2024-02-28T09:33:08;23.00;;;14.20;;
71769;SDS011;66386;52.122;5.420;2024-02-28T09:35:35;19.92;;;13.60;;
71769;SDS011;66386;52.122;5.420;2024-02-28T09:38:05;23.02;;;13.98;;
71769;SDS011;66386;52.122;5.420;2024-02-28T09:40:32;23.43;;;14.90;;
71769;SDS011;66386;52.122;5.420;2024-02-28T09:43:02;22.30;;;14.45;;
71769;SDS011;66386;52.122;5.420;2024-02-28T09:45:30;24.60;;;14.75;;
71769;SDS011;66386;52.122;5.420;2024-02-28T09:48:00;24.38;;;14.10;;
71769;SDS011;66386;52.122;5.420;2024-02-28T09:50:27;24.25;;;15.07;;
71769;SDS011;66386;52.122;5.420;2024-02-28T09:52:54;21.20;;;13.60;;
71769;SDS011;66386;52.122;5.420;2024-02-28T09:55:35;19.38;;;13.70;;
71769;SDS011;66386;52.122;5.420;2024-02-28T09:58:01;20.10;;;14.02;;
71769;SDS011;66386;52.122;5.420;2024-02-28T10:00:29;23.45;;;12.90;;
71769;SDS011;66386;52.122;5.420;2024-02-28T10:02:56;20.85;;;13.02;;
71769;SDS011;66386;52.122;5.420;2024-02-28T10:05:24;19.37;;;13.47;;
71769;SDS011;66386;52.122;5.420;2024-02-28T10:07:53;20.63;;;12.85;;
71769;SDS011;66386;52.122;5.420;2024-02-28T10:10:20;19.38;;;12.85;;
71769;SDS011;66386;52.122;5.420;2024-02-28T10:12:46;22.42;;;13.30;;
71769;SDS011;66386;52.122;5.420;2024-02-28T10:15:13;24.77;;;14.23;;
71769;SDS011;66386;52.122;5.420;2024-02-28T10:17:39;19.57;;;12.57;;
71769;SDS011;66386;52.122;5.420;2024-02-28T10:20:06;19.50;;;12.95;;
71769;SDS011;66386;52.122;5.420;2024-02-28T10:22:36;17.92;;;12.98;;
71769;SDS011;66386;52.122;5.420;2024-02-28T10:25:03;19.63;;;12.90;;
71769;SDS011;66386;52.122;5.420;2024-02-28T10:27:33;17.75;;;12.93;;
71769;SDS011;66386;52.122;5.420;2024-02-28T10:30:01;19.17;;;12.87;;
71769;SDS011;66386;52.122;5.420;2024-02-28T10:32:31;19.05;;;12.38;;
71769;SDS011;66386;52.122;5.420;2024-02-28T10:35:00;21.45;;;13.32;;
71769;SDS011;66386;52.122;5.420;2024-02-28T10:37:28;18.70;;;12.55;;
71769;SDS011;66386;52.122;5.420;2024-02-28T10:39:58;20.00;;;12.43;;
71769;SDS011;66386;52.122;5.420;2024-02-28T10:42:29;20.23;;;12.53;;
71769;SDS011;66386;52.122;5.420;2024-02-28T10:44:57;18.20;;;12.70;;
71769;SDS011;66386;52.122;5.420;2024-02-28T10:47:45;21.73;;;13.10;;
71769;SDS011;66386;52.122;5.420;2024-02-28T10:50:14;19.33;;;12.80;;
71769;SDS011;66386;52.122;5.420;2024-02-28T10:52:43;20.05;;;14.18;;
71769;SDS011;66386;52.122;5.420;2024-02-28T10:55:13;21.17;;;14.20;;
71769;SDS011;66386;52.122;5.420;2024-02-28T10:57:40;24.20;;;15.15;;
71769;SDS011;66386;52.122;5.420;2024-02-28T11:00:08;23.17;;;14.27;;
71769;SDS011;66386;52.122;5.420;2024-02-28T11:02:36;22.15;;;14.65;;
71769;SDS011;66386;52.122;5.420;2024-02-28T11:05:03;22.85;;;14.93;;
71769;SDS011;66386;52.122;5.420;2024-02-28T11:07:30;25.43;;;15.80;;
71769;SDS011;66386;52.122;5.420;2024-02-28T11:09:57;24.92;;;15.88;;
71769;SDS011;66386;52.122;5.420;2024-02-28T11:12:27;22.95;;;15.13;;
71769;SDS011;66386;52.122;5.420;2024-02-28T11:14:56;22.65;;;14.52;;
71769;SDS011;66386;52.122;5.420;2024-02-28T11:17:27;26.67;;;14.45;;
71769;SDS011;66386;52.122;5.420;2024-02-28T11:19:54;23.87;;;14.57;;
71769;SDS011;66386;52.122;5.420;2024-02-28T11:22:21;24.83;;;14.95;;
71769;SDS011;66386;52.122;5.420;2024-02-28T11:24:48;23.73;;;13.85;;
71769;SDS011;66386;52.122;5.420;2024-02-28T11:27:16;23.52;;;14.23;;
71769;SDS011;66386;52.122;5.420;2024-02-28T11:29:42;23.23;;;14.43;;
71769;SDS011;66386;52.122;5.420;2024-02-28T11:32:11;17.93;;;12.30;;
71769;SDS011;66386;52.122;5.420;2024-02-28T11:34:38;23.25;;;13.95;;
71769;SDS011;66386;52.122;5.420;2024-02-28T11:37:08;20.70;;;12.90;;
71769;SDS011;66386;52.122;5.420;2024-02-28T11:39:35;21.33;;;13.55;;
71769;SDS011;66386;52.122;5.420;2024-02-28T11:42:12;22.27;;;13.57;;
71769;SDS011;66386;52.122;5.420;2024-02-28T11:44:39;22.30;;;13.33;;
71769;SDS011;66386;52.122;5.420;2024-02-28T11:47:09;23.15;;;13.30;;
71769;SDS011;66386;52.122;5.420;2024-02-28T11:49:39;20.08;;;12.65;;
71769;SDS011;66386;52.122;5.420;2024-02-28T11:52:05;24.00;;;13.38;;
71769;SDS011;66386;52.122;5.420;2024-02-28T11:54:33;22.17;;;13.88;;
71769;SDS011;66386;52.122;5.420;2024-02-28T11:56:59;20.57;;;12.80;;
71769;SDS011;66386;52.122;5.420;2024-02-28T11:59:26;20.40;;;12.82;;
71769;SDS011;66386;52.122;5.420;2024-02-28T12:01:52;21.00;;;12.68;;
71769;SDS011;66386;52.122;5.420;2024-02-28T12:04:19;20.98;;;12.57;;
71769;SDS011;66386;52.122;5.420;2024-02-28T12:06:45;21.67;;;12.55;;
71769;SDS011;66386;52.122;5.420;2024-02-28T12:09:13;24.60;;;13.37;;
71769;SDS011;66386;52.122;5.420;2024-02-28T12:11:53;21.63;;;13.10;;
71769;SDS011;66386;52.122;5.420;2024-02-28T12:14:20;27.02;;;13.75;;
71769;SDS011;66386;52.122;5.420;2024-02-28T12:16:47;22.95;;;13.25;;
71769;SDS011;66386;52.122;5.420;2024-02-28T12:19:15;21.38;;;12.13;;
71769;SDS011;66386;52.122;5.420;2024-02-28T12:21:42;23.13;;;12.90;;
71769;SDS011;66386;52.122;5.420;2024-02-28T12:24:10;20.00;;;12.13;;
71769;SDS011;66386;52.122;5.420;2024-02-28T12:26:37;19.58;;;11.43;;
71769;SDS011;66386;52.122;5.420;2024-02-28T12:29:05;23.50;;;12.20;;
71769;SDS011;66386;52.122;5.420;2024-02-28T12:31:31;23.52;;;10.82;;
71769;SDS011;66386;52.122;5.420;2024-02-28T12:33:58;17.43;;;11.47;;
71769;SDS011;66386;52.122;5.420;2024-02-28T12:36:25;23.25;;;12.38;;
71769;SDS011;66386;52.122;5.420;2024-02-28T12:38:53;23.77;;;12.18;;
71769;SDS011;66386;52.122;5.420;2024-02-28T12:41:19;18.38;;;10.57;;
71769;SDS011;66386;52.122;5.420;2024-02-28T12:43:46;19.48;;;10.93;;
71769;SDS011;66386;52.122;5.420;2024-02-28T12:46:12;20.60;;;11.57;;
71769;SDS011;66386;52.122;5.420;2024-02-28T12:48:39;19.38;;;11.70;;
71769;SDS011;66386;52.122;5.420;2024-02-28T12:51:08;21.55;;;12.15;;
71769;SDS011;66386;52.122;5.420;2024-02-28T12:53:40;21.58;;;11.07;;
71769;SDS011;66386;52.122;5.420;2024-02-28T12:56:06;18.20;;;11.05;;
71769;SDS011;66386;52.122;5.420;2024-02-28T12:58:33;18.33;;;11.53;;
71769;SDS011;66386;52.122;5.420;2024-02-28T13:00:59;17.70;;;10.80;;
71769;SDS011;66386;52.122;5.420;2024-02-28T13:03:26;19.95;;;12.00;;
71769;SDS011;66386;52.122;5.420;2024-02-28T13:05:52;25.65;;;12.57;;
71769;SDS011;66386;52.122;5.420;2024-02-28T13:08:19;16.00;;;11.38;;
71769;SDS011;66386;52.122;5.420;2024-02-28T13:10:45;21.40;;;11.90;;
71769;SDS011;66386;52.122;5.420;2024-02-28T13:13:12;21.33;;;11.25;;
71769;SDS011;66386;52.122;5.420;2024-02-28T13:15:40;19.65;;;11.00;;
71769;SDS011;66386;52.122;5.420;2024-02-28T13:18:07;19.70;;;11.13;;
71769;SDS011;66386;52.122;5.420;2024-02-28T13:20:35;18.55;;;11.30;;
71769;SDS011;66386;52.122;5.420;2024-02-28T13:23:04;18.97;;;11.87;;
71769;SDS011;66386;52.122;5.420;2024-02-28T13:25:30;19.40;;;11.10;;
71769;SDS011;66386;52.122;5.420;2024-02-28T13:27:57;14.13;;;9.70;;
71769;SDS011;66386;52.122;5.420;2024-02-28T13:30:23;18.52;;;11.55;;
71769;SDS011;66386;52.122;5.420;2024-02-28T13:32:50;19.73;;;12.38;;
71769;SDS011;66386;52.122;5.420;2024-02-28T13:35:18;16.47;;;11.77;;
71769;SDS011;66386;52.122;5.420;2024-02-28T13:37:45;18.77;;;12.43;;
71769;SDS011;66386;52.122;5.420;2024-02-28T13:40:11;19.92;;;11.43;;
71769;SDS011;66386;52.122;5.420;2024-02-28T13:42:38;21.60;;;12.98;;
71769;SDS011;66386;52.122;5.420;2024-02-28T13:45:05;18.60;;;11.68;;
71769;SDS011;66386;52.122;5.420;2024-02-28T13:47:33;18.33;;;12.37;;
71769;SDS011;66386;52.122;5.420;2024-02-28T13:50:01;19.88;;;11.90;;
71769;SDS011;66386;52.122;5.420;2024-02-28T13:52:29;17.10;;;12.00;;
71769;SDS011;66386;52.122;5.420;2024-02-28T13:54:55;17.70;;;11.68;;
71769;SDS011;66386;52.122;5.420;2024-02-28T13:57:22;16.45;;;11.80;;
71769;SDS011;66386;52.122;5.420;2024-02-28T13:59:48;19.93;;;12.37;;
71769;SDS011;66386;52.122;5.420;2024-02-28T14:02:15;19.70;;;11.73;;
71769;SDS011;66386;52.122;5.420;2024-02-28T14:04:42;17.40;;;11.63;;
71769;SDS011;66386;52.122;5.420;2024-02-28T14:07:09;20.45;;;13.23;;
71769;SDS011;66386;52.122;5.420;2024-02-28T14:09:35;20.48;;;12.90;;
71769;SDS011;66386;52.122;5.420;2024-02-28T14:12:04;22.70;;;12.27;;
71769;SDS011;66386;52.122;5.420;2024-02-28T14:14:31;17.85;;;11.60;;
71769;SDS011;66386;52.122;5.420;2024-02-28T14:16:57;19.40;;;12.82;;
71769;SDS011;66386;52.122;5.420;2024-02-28T14:19:24;19.17;;;11.50;;
71769;SDS011;66386;52.122;5.420;2024-02-28T14:21:50;16.63;;;11.02;;
71769;SDS011;66386;52.122;5.420;2024-02-28T14:24:17;18.80;;;12.73;;